createdAt,value
2019-05-09T00:02:17.862Z,101029.11
2019-05-09T00:04:47.092Z,101030.48
2019-05-09T00:07:16.340Z,101034.88
2019-05-09T00:09:45.668Z,101030.14
2019-05-09T00:12:15.160Z,101036.31
2019-05-09T00:14:44.487Z,101030.21
2019-05-09T00:17:14.227Z,101033.64
2019-05-09T00:19:44.025Z,101036.73
2019-05-09T00:22:13.829Z,101029.32
2019-05-09T00:24:44.742Z,101026.78
2019-05-09T00:27:14.378Z,101024.31
2019-05-09T00:29:46.706Z,101030.08
2019-05-09T00:32:28.084Z,101024.38
2019-05-09T00:35:28.436Z,101028.36
2019-05-09T00:38:08.427Z,101027.13
2019-05-09T00:40:51.611Z,101026.79
2019-05-09T00:43:08.912Z,101028.09
2019-05-09T00:46:06.207Z,101032.34
2019-05-09T00:48:57.416Z,101025.34
2019-05-09T00:51:27.095Z,101035.63
2019-05-09T00:53:56.426Z,101033.23
2019-05-09T00:56:25.634Z,101031.23
2019-05-09T00:58:54.989Z,101032.33
2019-05-09T01:01:24.325Z,101030.67
2019-05-09T01:03:53.858Z,101031.28
2019-05-09T01:06:24.131Z,101042.31
2019-05-09T01:08:53.894Z,101053.41
2019-05-09T01:11:24.391Z,101052.92
2019-05-09T01:13:54.571Z,101055.05
2019-05-09T01:16:24.248Z,101044.63
2019-05-09T01:18:54.624Z,101049.09
2019-05-09T01:21:24.371Z,101049.64
2019-05-09T01:23:54.147Z,101038.55
2019-05-09T01:26:24.231Z,101015.68
2019-05-09T01:28:54.270Z,101039.92
2019-05-09T01:31:24.472Z,101042.19
2019-05-09T01:34:13.405Z,101040.81
2019-05-09T01:37:00.292Z,101042.59
2019-05-09T01:39:29.972Z,101040.81
2019-05-09T01:41:59.221Z,101038.13
2019-05-09T01:44:28.916Z,101040.26
2019-05-09T01:46:58.381Z,101039.84
2019-05-09T01:49:27.607Z,101033.27
2019-05-09T01:51:56.831Z,101037.58
2019-05-09T01:54:27.923Z,101037.24
2019-05-09T01:56:57.221Z,101029.84
2019-05-09T01:59:26.753Z,101033.34
2019-05-09T02:01:56.329Z,101022.02
2019-05-09T02:04:25.540Z,101022.36
2019-05-09T02:06:54.756Z,101016.59
2019-05-09T02:09:24.142Z,101015.63
2019-05-09T02:11:54.498Z,101012.40
2019-05-09T02:14:34.374Z,101016.79
2019-05-09T02:17:28.512Z,101011.17
2019-05-09T02:19:57.983Z,101008.63
2019-05-09T02:22:36.842Z,101011.23
2019-05-09T02:25:07.660Z,101010.48
2019-05-09T02:27:37.064Z,101012.76
2019-05-09T02:30:08.125Z,101013.79
2019-05-09T02:32:37.393Z,101017.02
2019-05-09T02:35:07.420Z,101015.11
2019-05-09T02:37:38.950Z,101015.25
2019-05-09T02:40:10.201Z,101013.67
2019-05-09T02:42:40.250Z,101017.72
2019-05-09T02:45:10.403Z,101011.41
2019-05-09T02:47:39.719Z,101014.57
2019-05-09T02:50:10.205Z,101013.00
2019-05-09T02:52:39.999Z,101017.87
2019-05-09T02:55:10.874Z,101017.11
2019-05-09T02:57:40.325Z,101010.32
2019-05-09T03:00:29.023Z,101013.89
2019-05-09T03:03:03.847Z,101004.00
2019-05-09T03:05:33.082Z,101007.16
2019-05-09T03:08:02.321Z,101004.62
2019-05-09T03:10:31.715Z,101009.49
2019-05-09T03:13:00.958Z,101016.15
2019-05-09T03:15:30.168Z,101006.67
2019-05-09T03:18:00.186Z,101007.22
2019-05-09T03:20:49.198Z,101012.16
2019-05-09T03:23:20.946Z,101006.59
2019-05-09T03:25:50.194Z,101007.21
2019-05-09T03:28:49.215Z,101013.93
2019-05-09T03:31:20.482Z,101009.73
2019-05-09T03:33:50.387Z,101013.44
2019-05-09T03:36:20.053Z,100998.81
2019-05-09T03:38:49.314Z,101003.74
2019-05-09T03:41:19.722Z,101007.38
2019-05-09T03:43:48.944Z,100999.67
2019-05-09T03:46:35.129Z,101005.50
2019-05-09T03:49:07.406Z,100996.02
2019-05-09T03:51:37.921Z,100995.32
2019-05-09T03:54:08.034Z,100998.12
2019-05-09T03:56:41.802Z,100994.81
2019-05-09T03:59:11.012Z,101000.67
2019-05-09T04:01:40.321Z,100998.72
2019-05-09T04:04:09.692Z,100992.80
2019-05-09T04:06:39.299Z,100992.98
2019-05-09T04:09:08.858Z,100991.39
2019-05-09T04:11:38.322Z,100991.52
2019-05-09T04:14:11.060Z,100992.05
2019-05-09T04:16:40.952Z,100988.86
2019-05-09T04:19:10.226Z,100986.91
2019-05-09T04:21:39.461Z,100983.11
2019-05-09T04:24:08.901Z,100981.57
2019-05-09T04:26:59.908Z,100987.96
2019-05-09T04:29:29.468Z,100980.72
2019-05-09T04:31:58.684Z,100983.03
2019-05-09T04:34:27.891Z,100980.54
2019-05-09T04:36:57.772Z,100979.77
2019-05-09T04:39:28.328Z,100975.55
2019-05-09T04:42:03.647Z,100974.48
2019-05-09T04:44:37.470Z,100969.00
2019-05-09T04:47:08.731Z,100973.58
2019-05-09T04:49:40.859Z,100968.98
2019-05-09T04:52:08.858Z,100964.34
2019-05-09T04:54:38.538Z,100965.77
2019-05-09T04:57:08.111Z,100962.44
2019-05-09T04:59:37.556Z,100958.98
2019-05-09T05:02:22.661Z,100961.71
2019-05-09T05:04:51.907Z,100949.33
2019-05-09T05:07:21.125Z,100955.26
2019-05-09T05:09:50.516Z,100955.78
2019-05-09T05:12:19.776Z,100961.91
2019-05-09T05:14:48.991Z,100957.31
2019-05-09T05:17:18.371Z,100963.18
2019-05-09T05:19:47.857Z,100961.40
2019-05-09T05:22:22.882Z,100962.59
2019-05-09T05:24:59.689Z,100970.97
2019-05-09T05:27:28.916Z,100952.77
2019-05-09T05:29:58.488Z,100955.13
2019-05-09T05:32:33.993Z,100957.12
2019-05-09T05:35:40.320Z,100957.44
2019-05-09T05:38:09.859Z,100964.19
2019-05-09T05:40:45.441Z,100960.95
2019-05-09T05:43:10.068Z,100959.32
2019-05-09T05:45:54.858Z,100957.38
2019-05-09T05:48:27.987Z,100949.00
2019-05-09T05:50:57.867Z,100958.27
2019-05-09T05:53:27.725Z,100962.14
2019-05-09T05:55:58.055Z,100955.00
2019-05-09T05:58:28.334Z,100949.45
2019-05-09T06:00:58.871Z,100954.88
2019-05-09T06:03:28.424Z,100956.44
2019-05-09T06:05:58.576Z,100959.25
2019-05-09T06:08:28.172Z,100965.11
2019-05-09T06:10:57.816Z,100966.69
2019-05-09T06:13:27.645Z,100960.15
2019-05-09T06:15:58.692Z,100963.62
2019-05-09T06:18:28.365Z,100961.14
2019-05-09T06:20:58.364Z,100974.43
2019-05-09T06:23:28.328Z,100961.98
2019-05-09T06:25:58.925Z,100960.25
2019-05-09T06:28:28.220Z,100962.67
2019-05-09T06:30:58.514Z,100964.08
2019-05-09T06:33:28.709Z,100952.28
2019-05-09T06:35:58.886Z,100965.81
2019-05-09T06:38:28.497Z,100959.63
2019-05-09T06:40:58.411Z,100964.78
2019-05-09T06:43:30.100Z,100970.73
2019-05-09T06:46:24.554Z,100962.13
2019-05-09T06:49:17.893Z,100962.34
2019-05-09T06:51:27.692Z,100959.30
2019-05-09T06:53:58.485Z,100956.86
2019-05-09T06:56:28.412Z,100964.21
2019-05-09T06:58:58.411Z,100958.41
2019-05-09T07:01:37.623Z,100956.59
2019-05-09T07:04:15.418Z,100957.14
2019-05-09T07:06:51.378Z,100954.14
2019-05-09T07:09:42.591Z,100950.95
2019-05-09T07:12:12.138Z,100953.88
2019-05-09T07:14:41.939Z,100949.69
2019-05-09T07:17:11.620Z,100958.91
2019-05-09T07:19:43.705Z,100951.17
2019-05-09T07:22:39.272Z,100820.01
2019-05-09T07:25:23.792Z,100940.92
2019-05-09T07:27:53.208Z,100946.00
2019-05-09T07:30:44.675Z,100947.09
2019-05-09T07:33:42.335Z,100946.75
2019-05-09T07:36:11.870Z,100949.84
2019-05-09T07:38:41.109Z,100951.88
2019-05-09T07:41:10.342Z,100955.05
2019-05-09T07:43:39.880Z,100950.05
2019-05-09T07:46:28.655Z,100951.52
2019-05-09T07:48:58.388Z,100947.58
2019-05-09T07:51:27.721Z,100946.50
2019-05-09T07:53:58.986Z,100946.63
2019-05-09T07:56:28.568Z,100941.87
2019-05-09T07:58:58.607Z,100940.32
2019-05-09T08:01:28.338Z,100946.05
2019-05-09T08:03:59.086Z,100931.85
2019-05-09T08:06:28.892Z,100935.70
2019-05-09T08:08:58.551Z,100933.89
2019-05-09T08:11:31.915Z,100937.83
2019-05-09T08:13:59.652Z,100931.63
2019-05-09T08:16:28.979Z,100929.72
2019-05-09T08:18:58.321Z,100929.97
2019-05-09T08:21:27.920Z,100925.41
2019-05-09T08:23:58.067Z,100929.11
2019-05-09T08:26:29.981Z,100931.00
2019-05-09T08:28:58.729Z,100928.06
2019-05-09T08:31:28.305Z,100924.20
2019-05-09T08:33:59.317Z,100922.03
2019-05-09T08:36:28.823Z,100924.05
2019-05-09T08:38:58.824Z,100913.20
2019-05-09T08:41:29.295Z,100910.17
2019-05-09T08:43:58.964Z,100909.89
2019-05-09T08:46:28.780Z,100904.43
2019-05-09T08:48:58.454Z,100904.66
2019-05-09T08:52:09.041Z,100910.02
2019-05-09T08:54:41.030Z,100907.97
2019-05-09T08:57:10.266Z,100909.38
2019-05-09T08:59:39.569Z,100907.42
2019-05-09T09:02:15.867Z,100908.66
2019-05-09T09:04:40.139Z,100923.43
2019-05-09T09:07:09.787Z,100902.11
2019-05-09T09:09:39.435Z,100904.80
2019-05-09T09:12:24.756Z,100909.06
2019-05-09T09:14:39.642Z,100907.73
2019-05-09T09:17:09.179Z,100909.41
2019-05-09T09:19:38.895Z,100908.17
2019-05-09T09:22:08.825Z,100908.17
2019-05-09T09:24:38.365Z,100904.17
2019-05-09T09:27:08.152Z,100914.89
2019-05-09T09:29:38.190Z,100910.41
2019-05-09T09:32:08.491Z,100905.30
2019-05-09T09:34:38.258Z,100909.49
2019-05-09T09:37:11.186Z,100905.84
2019-05-09T09:39:44.307Z,100909.56
2019-05-09T09:42:09.945Z,100907.48
2019-05-09T09:44:39.633Z,100902.26
2019-05-09T09:47:08.973Z,100890.59
2019-05-09T09:49:38.854Z,100901.00
2019-05-09T09:52:08.861Z,100896.50
2019-05-09T09:54:38.776Z,100897.82
2019-05-09T09:57:09.816Z,100886.64
2019-05-09T09:59:44.179Z,100902.34
2019-05-09T10:02:14.766Z,100885.63
2019-05-09T10:04:44.894Z,100891.22
2019-05-09T10:07:14.465Z,100893.31
2019-05-09T10:09:44.029Z,100893.25
2019-05-09T10:12:13.259Z,100882.86
2019-05-09T10:14:46.623Z,100873.53
2019-05-09T10:17:40.260Z,100876.27
2019-05-09T10:20:18.403Z,100882.50
2019-05-09T10:22:58.536Z,100877.56
2019-05-09T10:25:18.991Z,100885.00
2019-05-09T10:27:48.703Z,100879.14
2019-05-09T10:30:19.662Z,100874.07
2019-05-09T10:32:49.098Z,100873.39
2019-05-09T10:35:24.040Z,100884.78
2019-05-09T10:37:53.803Z,100872.66
2019-05-09T10:40:23.643Z,100876.14
2019-05-09T10:43:08.333Z,100868.88
2019-05-09T10:45:57.836Z,100871.05
2019-05-09T10:48:28.341Z,100866.12
2019-05-09T10:51:04.060Z,100858.33
2019-05-09T10:53:28.820Z,100861.05
2019-05-09T10:55:58.423Z,100860.90
2019-05-09T10:58:28.043Z,100852.47
2019-05-09T11:00:58.754Z,100854.02
2019-05-09T11:03:28.465Z,100857.52
2019-05-09T11:05:58.055Z,100847.64
2019-05-09T11:08:28.638Z,100848.61
2019-05-09T11:10:58.157Z,100843.44
2019-05-09T11:13:28.721Z,100847.94
2019-05-09T11:15:58.545Z,100843.80
2019-05-09T11:18:28.701Z,100844.55
2019-05-09T11:20:58.287Z,100835.12
2019-05-09T11:23:29.215Z,100834.88
2019-05-09T11:25:59.072Z,100825.20
2019-05-09T11:28:28.619Z,100837.61
2019-05-09T11:30:58.499Z,100837.17
2019-05-09T11:33:27.990Z,100838.94
2019-05-09T11:35:58.066Z,100834.52
2019-05-09T11:38:34.744Z,100826.56
2019-05-09T11:40:59.275Z,100829.22
2019-05-09T11:43:29.915Z,100830.11
2019-05-09T11:45:59.324Z,100829.66
2019-05-09T11:48:28.718Z,100824.76
2019-05-09T11:50:58.826Z,100827.31
2019-05-09T11:53:29.050Z,100842.28
2019-05-09T11:55:58.300Z,100825.50
2019-05-09T11:58:28.088Z,100818.38
2019-05-09T12:00:57.643Z,100828.78
2019-05-09T12:03:26.909Z,100817.95
2019-05-09T12:05:58.188Z,100818.07
2019-05-09T12:08:27.316Z,100820.58
2019-05-09T12:10:57.927Z,100810.89
2019-05-09T12:13:27.370Z,100804.58
2019-05-09T12:15:58.451Z,100812.56
2019-05-09T12:18:28.567Z,100820.23
2019-05-09T12:20:58.209Z,100812.77
2019-05-09T12:23:29.126Z,100799.06
2019-05-09T12:25:58.589Z,100800.49
2019-05-09T12:28:28.013Z,100815.97
2019-05-09T12:30:57.202Z,100801.39
2019-05-09T12:33:28.420Z,100799.59
2019-05-09T12:35:59.313Z,100808.00
2019-05-09T12:38:29.039Z,100795.20
2019-05-09T12:41:00.902Z,100814.20
2019-05-09T12:43:30.190Z,100804.04
2019-05-09T12:45:59.500Z,100800.06
2019-05-09T12:48:28.945Z,100793.88
2019-05-09T12:50:58.976Z,100803.58
2019-05-09T12:53:28.476Z,100796.93
2019-05-09T12:56:01.174Z,100800.48
2019-05-09T12:58:30.931Z,100778.38
2019-05-09T13:01:00.571Z,100790.70
2019-05-09T13:03:30.905Z,100791.54
2019-05-09T13:06:00.141Z,100799.95
2019-05-09T13:08:29.555Z,100802.62
2019-05-09T13:11:02.338Z,100799.83
2019-05-09T13:13:32.198Z,100786.52
2019-05-09T13:16:14.140Z,100786.00
2019-05-09T13:19:02.436Z,100793.25
2019-05-09T13:21:32.775Z,100783.94
2019-05-09T13:24:02.517Z,100773.66
2019-05-09T13:26:31.905Z,100782.08
2019-05-09T13:29:01.221Z,100793.59
2019-05-09T13:31:30.561Z,100781.23
2019-05-09T13:34:00.036Z,100780.87
2019-05-09T13:36:29.417Z,100772.12
2019-05-09T13:39:04.649Z,100776.06
2019-05-09T13:41:29.879Z,100788.78
2019-05-09T13:44:05.306Z,100791.12
2019-05-09T13:46:30.055Z,100804.45
2019-05-09T13:49:11.415Z,100791.22
2019-05-09T13:51:33.122Z,100783.28
2019-05-09T13:54:02.618Z,100782.84
2019-05-09T13:56:31.859Z,100794.30
2019-05-09T13:59:01.131Z,100787.14
2019-05-09T14:01:30.728Z,100778.69
2019-05-09T14:03:59.966Z,100781.72
2019-05-09T14:06:29.613Z,100790.14
2019-05-09T14:08:59.873Z,100782.22
2019-05-09T14:11:29.411Z,100787.11
2019-05-09T14:13:58.671Z,100782.28
2019-05-09T14:16:28.843Z,100777.86
2019-05-09T14:19:04.044Z,100776.94
2019-05-09T14:21:29.932Z,100769.90
2019-05-09T14:24:10.916Z,100775.55
2019-05-09T14:26:31.179Z,100752.05
2019-05-09T14:29:00.512Z,100767.84
2019-05-09T14:31:32.397Z,100761.72
2019-05-09T14:34:00.812Z,100758.63
2019-05-09T14:36:30.085Z,100758.22
2019-05-09T14:38:59.412Z,100759.95
2019-05-09T14:41:28.804Z,100754.66
2019-05-09T14:43:59.876Z,100769.64
2019-05-09T14:46:29.320Z,100764.22
2019-05-09T14:48:59.214Z,100757.95
2019-05-09T14:51:28.659Z,100759.67
2019-05-09T14:53:59.365Z,100767.59
2019-05-09T14:56:29.460Z,100762.66
2019-05-09T14:58:58.803Z,100768.33
2019-05-09T15:01:28.865Z,100755.59
2019-05-09T15:03:58.912Z,100762.96
2019-05-09T15:06:28.482Z,100765.02
2019-05-09T15:08:58.332Z,100758.52
2019-05-09T15:11:28.530Z,100757.69
2019-05-09T15:13:58.637Z,100757.80
2019-05-09T15:16:28.436Z,100750.80
2019-05-09T15:18:58.598Z,100751.84
2019-05-09T15:21:28.205Z,100752.33
2019-05-09T15:23:58.940Z,100750.59
2019-05-09T15:26:28.736Z,100747.19
2019-05-09T15:28:58.086Z,100747.23
2019-05-09T15:31:28.604Z,100745.02
2019-05-09T15:33:58.193Z,100742.46
2019-05-09T15:36:27.467Z,100740.86
2019-05-09T15:38:58.951Z,100740.45
2019-05-09T15:41:27.875Z,100744.84
2019-05-09T15:43:57.963Z,100746.18
2019-05-09T15:46:33.464Z,100741.77
2019-05-09T15:49:02.800Z,100735.16
2019-05-09T15:51:32.310Z,100740.45
2019-05-09T15:54:01.895Z,100740.00
2019-05-09T15:56:31.278Z,100739.55
2019-05-09T15:59:00.540Z,100735.14
2019-05-09T16:01:29.957Z,100732.94
2019-05-09T16:03:59.223Z,100726.31
2019-05-09T16:06:33.037Z,100724.98
2019-05-09T16:08:59.738Z,100717.85
2019-05-09T16:11:29.125Z,100711.42
2019-05-09T16:13:58.521Z,100705.50
2019-05-09T16:16:28.645Z,100707.27
2019-05-09T16:18:58.437Z,100700.49
2019-05-09T16:21:28.000Z,100703.33
2019-05-09T16:23:59.235Z,100702.37
2019-05-09T16:26:40.050Z,100690.03
2019-05-09T16:29:09.521Z,100691.72
2019-05-09T16:31:39.117Z,100689.36
2019-05-09T16:34:09.347Z,100691.42
2019-05-09T16:36:39.226Z,100691.41
2019-05-09T16:39:08.648Z,100694.24
2019-05-09T16:41:39.321Z,100691.21
2019-05-09T16:44:08.895Z,100702.48
2019-05-09T16:46:38.190Z,100705.11
2019-05-09T16:49:11.589Z,100693.14
2019-05-09T16:51:40.576Z,100689.89
2019-05-09T16:54:09.589Z,100694.70
2019-05-09T16:56:39.004Z,100688.92
2019-05-09T16:59:08.508Z,100687.52
2019-05-09T17:01:40.398Z,100688.03
2019-05-09T17:04:15.421Z,100674.09
2019-05-09T17:06:44.967Z,100685.23
2019-05-09T17:09:14.193Z,100703.80
2019-05-09T17:11:43.500Z,100681.20
2019-05-09T17:14:12.945Z,100674.08
2019-05-09T17:16:42.162Z,100682.41
2019-05-09T17:19:11.463Z,100678.66
2019-05-09T17:21:49.769Z,100682.34
2019-05-09T17:24:19.623Z,100688.64
2019-05-09T17:26:49.066Z,100681.92
2019-05-09T17:29:18.757Z,100687.66
2019-05-09T17:31:48.765Z,100691.05
2019-05-09T17:34:18.318Z,100696.67
2019-05-09T17:36:47.590Z,100688.47
2019-05-09T17:39:18.617Z,100682.14
2019-05-09T17:41:48.188Z,100687.92
2019-05-09T17:44:18.626Z,100680.16
2019-05-09T17:46:48.211Z,100680.73
2019-05-09T17:49:17.725Z,100680.13
2019-05-09T17:51:48.251Z,100682.66
2019-05-09T17:54:18.359Z,100677.26
2019-05-09T17:56:48.416Z,100677.59
2019-05-09T17:59:18.593Z,100677.05
2019-05-09T18:01:48.613Z,100677.77
2019-05-09T18:04:18.184Z,100679.33
2019-05-09T18:06:49.038Z,100670.30
2019-05-09T18:09:19.137Z,100677.23
2019-05-09T18:11:49.828Z,100675.42
2019-05-09T18:14:19.049Z,100678.38
2019-05-09T18:16:48.713Z,100686.15
2019-05-09T18:19:18.058Z,100682.50
2019-05-09T18:21:51.073Z,100679.41
2019-05-09T18:24:18.470Z,100676.33
2019-05-09T18:26:47.937Z,100677.08
2019-05-09T18:29:18.202Z,100671.27
2019-05-09T18:32:10.604Z,100668.11
2019-05-09T18:34:39.857Z,100672.83
2019-05-09T18:37:09.257Z,100665.70
2019-05-09T18:39:39.551Z,100674.32
2019-05-09T18:42:09.096Z,100672.83
2019-05-09T18:44:38.377Z,100668.25
2019-05-09T18:47:08.080Z,100672.89
2019-05-09T18:49:37.436Z,100673.12
2019-05-09T18:52:06.925Z,100642.36
2019-05-09T18:54:36.469Z,100668.42
2019-05-09T18:57:05.805Z,100669.16
2019-05-09T18:59:35.021Z,100673.31
2019-05-09T19:02:04.487Z,100670.14
2019-05-09T19:04:33.721Z,100665.25
2019-05-09T19:07:03.016Z,100670.45
2019-05-09T19:09:32.446Z,100665.05
2019-05-09T19:12:01.677Z,100662.30
2019-05-09T19:14:31.212Z,100666.00
2019-05-09T19:17:20.086Z,100668.45
2019-05-09T19:20:01.151Z,100665.32
2019-05-09T19:22:30.570Z,100653.49
2019-05-09T19:24:59.919Z,100656.88
2019-05-09T19:27:29.129Z,100662.91
2019-05-09T19:29:58.599Z,100662.79
2019-05-09T19:32:27.826Z,100651.34
2019-05-09T19:34:57.491Z,100659.95
2019-05-09T19:37:26.919Z,100658.05
2019-05-09T19:39:56.135Z,100658.81
2019-05-09T19:42:25.456Z,100663.87
2019-05-09T19:44:54.813Z,100665.56
2019-05-09T19:47:24.077Z,100661.22
2019-05-09T19:49:53.542Z,100656.69
2019-05-09T19:52:37.285Z,100652.59
2019-05-09T19:54:55.906Z,100648.57
2019-05-09T19:57:26.001Z,100648.39
2019-05-09T19:59:56.261Z,100648.77
2019-05-09T20:02:25.492Z,100650.08
2019-05-09T20:04:55.780Z,100650.41
2019-05-09T20:07:25.143Z,100649.56
2019-05-09T20:10:04.473Z,100645.12
2019-05-09T20:12:40.646Z,100639.89
2019-05-09T20:15:12.111Z,100633.35
2019-05-09T20:17:41.470Z,100635.41
2019-05-09T20:20:10.715Z,100637.94
2019-05-09T20:22:52.042Z,100635.66
2019-05-09T20:25:11.685Z,100632.02
2019-05-09T20:27:41.181Z,100637.62
2019-05-09T20:30:12.234Z,100632.67
2019-05-09T20:32:41.493Z,100633.47
2019-05-09T20:35:10.920Z,100639.07
2019-05-09T20:37:40.687Z,100635.89
2019-05-09T20:40:10.636Z,100628.23
2019-05-09T20:42:40.576Z,100629.07
2019-05-09T20:45:19.492Z,100627.77
2019-05-09T20:47:49.461Z,100625.15
2019-05-09T20:50:19.361Z,100619.87
2019-05-09T20:52:48.783Z,100615.39
2019-05-09T20:55:18.589Z,100616.66
2019-05-09T20:57:51.684Z,100617.91
2019-05-09T21:00:19.531Z,100619.55
2019-05-09T21:02:49.043Z,100207.59
2019-05-09T21:05:18.456Z,100614.45
2019-05-09T21:07:47.959Z,100613.56
2019-05-09T21:10:18.112Z,100604.83
2019-05-09T21:12:47.622Z,100608.23
2019-05-09T21:15:17.133Z,100608.75
2019-05-09T21:17:46.681Z,100603.47
2019-05-09T21:20:16.082Z,100604.36
2019-05-09T21:22:46.204Z,100601.28
2019-05-09T21:25:15.795Z,100601.70
2019-05-09T21:27:45.235Z,100597.31
2019-05-09T21:30:15.003Z,100598.98
2019-05-09T21:32:44.520Z,100590.58
2019-05-09T21:35:13.954Z,100581.85
2019-05-09T21:37:45.924Z,100581.90
2019-05-09T21:40:15.350Z,100583.58
2019-05-09T21:42:44.568Z,100584.33
2019-05-09T21:45:14.188Z,100579.05
2019-05-09T21:47:43.497Z,100582.45
2019-05-09T21:50:13.048Z,100576.29
2019-05-09T21:52:42.600Z,100573.16
2019-05-09T21:55:11.888Z,100573.58
2019-05-09T21:57:42.017Z,100569.70
2019-05-09T22:00:15.874Z,100577.92
2019-05-09T22:02:45.191Z,100573.84
2019-05-09T22:05:14.410Z,100573.38
2019-05-09T22:07:44.139Z,100572.08
2019-05-09T22:10:13.561Z,100568.99
2019-05-09T22:12:43.028Z,100574.69
2019-05-09T22:15:12.501Z,100573.33
2019-05-09T22:17:41.759Z,100565.44
2019-05-09T22:20:13.810Z,100567.95
2019-05-09T22:22:43.065Z,100560.48
2019-05-09T22:25:12.913Z,100558.72
2019-05-09T22:27:42.323Z,100553.91
2019-05-09T22:30:13.094Z,100556.00
2019-05-09T22:32:42.422Z,100549.37
2019-05-09T22:35:13.918Z,100552.37
2019-05-09T22:37:43.401Z,100547.89
2019-05-09T22:40:13.132Z,100550.92
2019-05-09T22:42:42.728Z,100548.73
2019-05-09T22:45:13.179Z,100556.45
2019-05-09T22:47:42.547Z,100553.33
2019-05-09T22:50:11.978Z,100552.39
2019-05-09T22:52:41.271Z,100551.50
2019-05-09T22:55:10.507Z,100548.84
2019-05-09T22:57:39.962Z,100552.24
2019-05-09T23:00:09.542Z,100548.74
2019-05-09T23:02:41.836Z,100543.47
2019-05-09T23:05:11.171Z,100540.34
2019-05-09T23:07:40.741Z,100533.23
2019-05-09T23:10:10.360Z,100533.70
2019-05-09T23:12:39.560Z,100532.82
2019-05-09T23:15:11.031Z,100531.09
2019-05-09T23:17:40.277Z,100525.88
2019-05-09T23:20:16.439Z,100526.30
2019-05-09T23:22:45.836Z,100526.34
2019-05-09T23:25:15.044Z,100519.34
2019-05-09T23:27:44.516Z,100512.81
2019-05-09T23:30:14.803Z,100518.41
2019-05-09T23:32:45.628Z,100509.17
2019-05-09T23:35:14.889Z,100504.27
2019-05-09T23:37:44.097Z,100502.96
2019-05-09T23:40:13.405Z,100500.77
2019-05-09T23:42:42.670Z,100503.75
2019-05-09T23:45:12.016Z,100497.06
2019-05-09T23:47:41.434Z,100502.76
2019-05-09T23:50:10.786Z,100503.55
2019-05-09T23:52:40.004Z,100502.66
2019-05-09T23:55:27.554Z,100494.41
2019-05-09T23:58:14.441Z,100495.30
